Gsp Alcor — 9V8448 — position and weather

sailwx.info

Track history (hours):
 
Tides and Currents Weather Stations Pressure Air Temp Water Temp Dewpoint Dewpoint Depression Visibility Wind Speed Wind Dir Waves Ship Positions

Gsp Alcor

Last reported at 2015-Sep-02 08:23 UTC. Time now 2015-Sep-03 21:34 UTC.
Position N 44°04' E 030°43'.

Length 59 m; draft 4.4 m.

Type: Ship. MMSI: 565543000.

Date/timePositionNaut miles runAvg speedWind from/ knotsBaromVisibWave heightAir tempDewpointWater temp
2015-Sep-02 08:23N 44°04' E 030°43'8 9.5
2015-Sep-02 07:33N 44°05' E 030°54'10 9.5
2015-Sep-02 06:33N 44°04' E 031°07'9 9.4
2015-Sep-02 05:33N 44°04' E 031°20'9 9.4
2015-Sep-02 04:33N 44°04' E 031°33'9 9.4
2015-Sep-02 03:33N 44°04' E 031°46'9 9.3
2015-Sep-02 02:33N 44°04' E 031°59'10 9.5
2015-Sep-02 01:32N 44°04' E 032°13'9 9.5
2015-Sep-02 00:33N 44°04' E 032°26'10 9.4
2015-Sep-01 23:32N 44°04' E 032°39'62 9.8
2015-Sep-01 17:13N 44°02' E 034°05'710.1
2015-Sep-01 16:33N 44°02' E 034°15'10 9.9
2015-Sep-01 15:33N 44°04' E 034°28'10 9.7
2015-Sep-01 14:33N 44°07' E 034°41'10 9.9
2015-Sep-01 13:34N 44°10' E 034°54'10 9.8
2015-Sep-01 12:34N 44°13' E 035°07'10 9.8
2015-Sep-01 11:33N 44°18' E 035°19'10 9.5
2015-Sep-01 10:33N 44°22' E 035°31'9 9.4
2015-Sep-01 09:33N 44°26' E 035°43'10 9.6
2015-Sep-01 08:34N 44°30' E 035°55'10 9.8
2015-Sep-01 07:33N 44°34' E 036°08'10 9.6
2015-Sep-01 06:33N 44°39' E 036°19'9 8.7
2015-Sep-01 05:33N 44°46' E 036°26'9 9.0
2015-Sep-01 04:33N 44°55' E 036°29'9 9.0
2015-Sep-01 03:33N 45°04' E 036°29'  
Track history (hours):
 
Tides and Currents Weather Stations Pressure Air Temp Water Temp Dewpoint Dewpoint Depression Visibility Wind Speed Wind Dir Waves Ship Positions

Gsp Alcor

Last reported at 2015-Sep-02 08:23 UTC. Time now 2015-Sep-03 21:34 UTC.
Position N 44°04' E 030°43'.

Length 59 m; draft 4.4 m.

Type: Ship. MMSI: 565543000.

Date/timePositionNaut miles runAvg speedWind from/ knotsBaromVisibWave heightAir tempDewpointWater temp
2015-Sep-02 08:23N 44°04' E 030°43'8 9.5
2015-Sep-02 07:33N 44°05' E 030°54'10 9.5
2015-Sep-02 06:33N 44°04' E 031°07'9 9.4
2015-Sep-02 05:33N 44°04' E 031°20'9 9.4
2015-Sep-02 04:33N 44°04' E 031°33'9 9.4
2015-Sep-02 03:33N 44°04' E 031°46'9 9.3
2015-Sep-02 02:33N 44°04' E 031°59'10 9.5
2015-Sep-02 01:32N 44°04' E 032°13'9 9.5
2015-Sep-02 00:33N 44°04' E 032°26'10 9.4
2015-Sep-01 23:32N 44°04' E 032°39'62 9.8
2015-Sep-01 17:13N 44°02' E 034°05'710.1
2015-Sep-01 16:33N 44°02' E 034°15'10 9.9
2015-Sep-01 15:33N 44°04' E 034°28'10 9.7
2015-Sep-01 14:33N 44°07' E 034°41'10 9.9
2015-Sep-01 13:34N 44°10' E 034°54'10 9.8
2015-Sep-01 12:34N 44°13' E 035°07'10 9.8
2015-Sep-01 11:33N 44°18' E 035°19'10 9.5
2015-Sep-01 10:33N 44°22' E 035°31'9 9.4
2015-Sep-01 09:33N 44°26' E 035°43'10 9.6
2015-Sep-01 08:34N 44°30' E 035°55'10 9.8
2015-Sep-01 07:33N 44°34' E 036°08'10 9.6
2015-Sep-01 06:33N 44°39' E 036°19'9 8.7
2015-Sep-01 05:33N 44°46' E 036°26'9 9.0
2015-Sep-01 04:33N 44°55' E 036°29'9 9.0
2015-Sep-01 03:33N 45°04' E 036°29'  

Dump ship's entire track history